createdAt,value
2019-02-24T00:02:41.893Z,53.27
2019-02-24T00:07:47.441Z,53.65
2019-02-24T00:12:52.974Z,54.41
2019-02-24T00:18:01.155Z,54.27
2019-02-24T00:23:09.856Z,54.23
2019-02-24T00:28:16.034Z,54.77
2019-02-24T00:33:21.762Z,54.22
2019-02-24T00:38:29.207Z,55.55
2019-02-24T00:43:34.899Z,55.47
2019-02-24T00:48:40.545Z,56.27
2019-02-24T00:53:46.097Z,55.14
2019-02-24T00:58:51.669Z,55.92
2019-02-24T01:03:57.175Z,55.83
2019-02-24T01:09:03.063Z,55.48
2019-02-24T01:14:11.032Z,55.65
2019-02-24T01:19:16.544Z,56.00
2019-02-24T01:24:22.141Z,55.81
2019-02-24T01:29:29.893Z,55.54
2019-02-24T01:34:38.687Z,56.08
2019-02-24T01:39:46.582Z,56.26
2019-02-24T01:44:55.461Z,56.38
2019-02-24T01:50:03.071Z,56.48
2019-02-24T01:55:08.725Z,55.67
2019-02-24T02:00:17.292Z,56.06
2019-02-24T02:05:22.879Z,54.87
2019-02-24T02:10:28.880Z,55.74
2019-02-24T02:15:35.077Z,54.90
2019-02-24T02:20:40.609Z,55.70
2019-02-24T02:25:46.544Z,55.14
2019-02-24T02:30:52.067Z,55.52
2019-02-24T02:35:58.047Z,56.13
2019-02-24T02:41:04.207Z,55.70
2019-02-24T02:46:11.136Z,55.53
2019-02-24T02:51:16.731Z,56.01
2019-02-24T02:56:22.515Z,56.00
2019-02-24T03:01:29.815Z,55.61
2019-02-24T03:06:55.917Z,55.47
2019-02-24T03:12:01.501Z,55.67
2019-02-24T03:17:07.844Z,55.49
2019-02-24T03:22:13.317Z,56.38
2019-02-24T03:27:19.082Z,56.92
2019-02-24T03:32:24.895Z,56.75
2019-02-24T03:37:30.523Z,56.38
2019-02-24T03:42:36.047Z,56.04
2019-02-24T03:47:41.899Z,56.28
2019-02-24T03:52:47.915Z,56.07
2019-02-24T03:57:53.644Z,56.40
2019-02-24T04:02:59.298Z,56.47
2019-02-24T04:08:05.820Z,56.62
2019-02-24T04:13:13.091Z,57.04
2019-02-24T04:18:18.864Z,57.49
2019-02-24T04:23:24.683Z,58.11
2019-02-24T04:28:31.962Z,57.49
2019-02-24T04:33:37.530Z,57.62
2019-02-24T04:38:43.334Z,58.11
2019-02-24T04:43:48.933Z,57.93
2019-02-24T04:48:55.975Z,57.65
2019-02-24T04:54:01.636Z,58.99
2019-02-24T04:59:08.738Z,58.59
2019-02-24T05:04:14.441Z,58.41
2019-02-24T05:09:20.223Z,58.35
2019-02-24T05:14:26.161Z,58.78
2019-02-24T05:19:31.789Z,59.31
2019-02-24T05:24:37.613Z,59.86
2019-02-24T05:29:46.201Z,59.12
2019-02-24T05:34:51.408Z,59.02
2019-02-24T05:39:57.952Z,59.66
2019-02-24T05:45:04.395Z,59.85
2019-02-24T05:50:10.359Z,59.54
2019-02-24T05:55:16.460Z,59.84
2019-02-24T06:00:22.296Z,59.46
2019-02-24T06:05:27.967Z,59.27
2019-02-24T06:10:33.788Z,59.27
2019-02-24T06:15:39.779Z,59.69
2019-02-24T06:20:45.561Z,60.08
2019-02-24T06:25:52.142Z,60.25
2019-02-24T06:30:57.792Z,59.55
2019-02-24T06:36:06.221Z,59.40
2019-02-24T06:41:12.234Z,60.40
2019-02-24T06:46:21.104Z,58.12
2019-02-24T06:51:28.803Z,57.64
2019-02-24T06:56:34.782Z,57.90
2019-02-24T07:01:40.487Z,57.55
2019-02-24T07:06:46.764Z,57.51
2019-02-24T07:11:52.437Z,57.70
2019-02-24T07:16:59.534Z,57.72
2019-02-24T07:22:08.555Z,57.48
2019-02-24T07:27:14.725Z,57.25
2019-02-24T07:32:21.327Z,56.08
2019-02-24T07:37:27.306Z,54.97
2019-02-24T07:42:35.733Z,56.59
2019-02-24T07:47:41.273Z,56.00
2019-02-24T07:52:46.841Z,55.85
2019-02-24T07:57:52.722Z,56.49
2019-02-24T08:03:00.592Z,57.14
2019-02-24T08:08:16.044Z,57.00
2019-02-24T08:13:14.985Z,55.48
2019-02-24T08:18:21.028Z,54.69
2019-02-24T08:23:28.234Z,54.35
2019-02-24T08:28:34.190Z,54.18
2019-02-24T08:33:41.046Z,54.38
2019-02-24T08:38:46.726Z,54.22
2019-02-24T08:43:52.935Z,54.72
2019-02-24T08:48:58.576Z,54.17
2019-02-24T08:54:04.499Z,53.54
2019-02-24T08:59:10.174Z,55.41
2019-02-24T09:04:17.966Z,54.35
2019-02-24T09:09:23.503Z,53.55
2019-02-24T09:14:29.063Z,53.32
2019-02-24T09:19:36.612Z,52.08
2019-02-24T09:24:42.013Z,52.87
2019-02-24T09:29:48.156Z,52.74
2019-02-24T09:34:53.717Z,50.54
2019-02-24T09:39:59.595Z,51.71
2019-02-24T09:45:05.869Z,49.54
2019-02-24T09:50:14.681Z,49.40
2019-02-24T09:55:20.364Z,47.58
2019-02-24T10:00:26.938Z,49.66
2019-02-24T10:05:32.635Z,48.53
2019-02-24T10:10:40.546Z,47.53
2019-02-24T10:15:46.135Z,46.45
2019-02-24T10:20:52.231Z,45.51
2019-02-24T10:25:58.825Z,44.16
2019-02-24T10:31:07.951Z,44.40
2019-02-24T10:36:13.598Z,43.33
2019-02-24T10:41:19.291Z,41.88
2019-02-24T10:46:25.028Z,42.90
2019-02-24T10:51:31.599Z,40.59
2019-02-24T10:56:38.391Z,40.59
2019-02-24T11:01:43.960Z,40.12
2019-02-24T11:06:49.947Z,39.20
2019-02-24T11:11:55.994Z,37.23
2019-02-24T11:17:05.107Z,36.89
2019-02-24T11:22:10.961Z,36.71
2019-02-24T11:27:16.884Z,34.49
2019-02-24T11:32:39.946Z,31.01
2019-02-24T11:37:47.813Z,32.49
2019-02-24T11:42:54.017Z,30.30
2019-02-24T11:48:00.300Z,28.83
2019-02-24T11:53:06.952Z,27.74
2019-02-24T11:58:13.665Z,28.36
2019-02-24T12:03:19.796Z,30.10
2019-02-24T12:08:25.707Z,26.44
2019-02-24T12:13:31.404Z,26.01
2019-02-24T12:18:39.272Z,25.43
2019-02-24T12:23:45.038Z,30.49
2019-02-24T12:28:53.989Z,33.05
2019-02-24T12:34:01.317Z,34.05
2019-02-24T12:39:07.500Z,34.64
2019-02-24T12:44:15.809Z,33.17
2019-02-24T12:49:23.463Z,33.00
2019-02-24T12:54:29.165Z,32.55
2019-02-24T12:59:35.448Z,33.27
2019-02-24T13:04:41.521Z,32.79
2019-02-24T13:09:47.469Z,32.29
2019-02-24T13:14:55.324Z,32.18
2019-02-24T13:20:01.154Z,31.40
2019-02-24T13:25:07.356Z,31.16
2019-02-24T13:30:14.910Z,30.64
2019-02-24T13:35:20.598Z,30.58
2019-02-24T13:40:29.322Z,30.44
2019-02-24T13:45:35.008Z,30.29
2019-02-24T13:50:41.159Z,31.66
2019-02-24T13:55:46.880Z,31.59
2019-02-24T14:00:54.742Z,32.43
2019-02-24T14:06:02.447Z,32.99
2019-02-24T14:11:11.315Z,32.79
2019-02-24T14:16:18.033Z,32.43
2019-02-24T14:21:23.760Z,29.25
2019-02-24T14:26:30.339Z,31.16
2019-02-24T14:31:37.027Z,31.09
2019-02-24T14:36:45.857Z,32.33
2019-02-24T14:41:51.838Z,31.57
2019-02-24T14:47:03.022Z,31.14
2019-02-24T14:52:09.666Z,29.27
2019-02-24T14:57:15.320Z,28.25
2019-02-24T15:02:21.410Z,27.39
2019-02-24T15:07:27.494Z,27.84
2019-02-24T15:12:34.313Z,25.78
2019-02-24T15:17:40.735Z,25.74
2019-02-24T15:22:47.827Z,26.47
2019-02-24T15:27:53.609Z,26.99
2019-02-24T15:32:59.913Z,28.49
2019-02-24T15:38:07.039Z,31.88
2019-02-24T15:43:14.075Z,31.87
2019-02-24T15:48:19.863Z,32.69
2019-02-24T15:53:26.188Z,32.92
2019-02-24T15:58:31.864Z,33.39
2019-02-24T16:03:41.741Z,32.98
2019-02-24T16:08:48.999Z,33.33
2019-02-24T16:13:55.191Z,34.40
2019-02-24T16:19:01.297Z,33.97
2019-02-24T16:24:12.698Z,35.43
2019-02-24T16:29:19.355Z,36.02
2019-02-24T16:34:25.145Z,37.92
2019-02-24T16:39:31.022Z,37.55
2019-02-24T16:44:39.457Z,37.70
2019-02-24T16:49:46.213Z,37.38
2019-02-24T16:54:53.254Z,38.77
2019-02-24T16:59:59.098Z,37.60
2019-02-24T17:05:07.927Z,39.07
2019-02-24T17:10:15.259Z,40.25
2019-02-24T17:15:21.295Z,41.30
2019-02-24T17:20:28.660Z,40.96
2019-02-24T17:25:36.769Z,41.81
2019-02-24T17:30:47.239Z,42.02
2019-02-24T17:35:57.879Z,41.54
2019-02-24T17:41:08.452Z,42.91
2019-02-24T17:46:18.397Z,44.02
2019-02-24T17:51:25.693Z,44.63
2019-02-24T17:56:36.542Z,45.77
2019-02-24T18:01:42.689Z,46.05
2019-02-24T18:06:49.665Z,45.99
2019-02-24T18:12:00.196Z,46.14
2019-02-24T18:17:13.930Z,46.67
2019-02-24T18:22:21.165Z,46.67
2019-02-24T18:27:27.611Z,46.78
2019-02-24T18:32:37.176Z,47.37
2019-02-24T18:37:58.713Z,47.48
2019-02-24T18:43:08.341Z,46.37
2019-02-24T18:48:15.785Z,47.00
2019-02-24T18:53:27.646Z,47.25
2019-02-24T18:58:41.361Z,47.25
2019-02-24T19:03:57.360Z,48.13
2019-02-24T19:09:01.989Z,48.56
2019-02-24T19:14:21.463Z,49.44
2019-02-24T19:19:32.794Z,49.44
2019-02-24T19:24:43.481Z,50.72
2019-02-24T19:29:56.515Z,50.72
2019-02-24T19:35:09.805Z,50.29
2019-02-24T19:40:21.276Z,50.68
2019-02-24T19:45:28.759Z,50.94
2019-02-24T19:50:41.264Z,51.62
2019-02-24T19:55:49.699Z,51.50
2019-02-24T20:01:17.846Z,51.50
2019-02-24T20:06:24.309Z,52.11
2019-02-24T20:11:31.703Z,52.67
2019-02-24T20:16:42.367Z,52.44
2019-02-24T20:21:54.197Z,52.31
2019-02-24T20:27:09.942Z,52.06
2019-02-24T20:32:18.367Z,52.63
2019-02-24T20:37:25.162Z,52.67
2019-02-24T20:42:31.668Z,52.89
2019-02-24T20:47:38.500Z,52.87
2019-02-24T20:52:45.973Z,53.07
2019-02-24T20:57:54.298Z,53.09
2019-02-24T21:03:01.620Z,52.90
2019-02-24T21:08:09.225Z,53.00
2019-02-24T21:13:16.857Z,53.53
2019-02-24T21:18:23.040Z,53.51
2019-02-24T21:23:28.833Z,52.97
2019-02-24T21:28:37.725Z,53.54
2019-02-24T21:33:44.191Z,53.76
2019-02-24T21:38:53.691Z,53.60
2019-02-24T21:44:00.511Z,53.87
2019-02-24T21:49:20.462Z,54.36
2019-02-24T21:54:27.857Z,54.09
2019-02-24T21:59:36.937Z,54.08
2019-02-24T22:04:42.109Z,54.35
2019-02-24T22:09:47.811Z,54.34
2019-02-24T22:14:55.062Z,54.32
2019-02-24T22:20:02.759Z,54.90
2019-02-24T22:25:13.280Z,54.62
2019-02-24T22:30:20.730Z,54.63
2019-02-24T22:35:26.409Z,54.13
2019-02-24T22:40:41.039Z,54.56
2019-02-24T22:45:50.135Z,54.40
2019-02-24T22:50:57.831Z,54.97
2019-02-24T22:56:03.337Z,54.77
2019-02-24T23:01:20.127Z,54.36
2019-02-24T23:06:26.791Z,55.08
2019-02-24T23:11:32.398Z,54.53
2019-02-24T23:16:38.019Z,54.66
2019-02-24T23:21:43.716Z,54.83
2019-02-24T23:26:49.375Z,54.78
2019-02-24T23:31:55.169Z,55.09
2019-02-24T23:37:02.000Z,54.92
2019-02-24T23:42:07.576Z,55.38
2019-02-24T23:47:13.135Z,55.20
2019-02-24T23:52:19.070Z,55.22
2019-02-24T23:57:29.917Z,54.54
